Aeroporto :
LOGIN :

Iscrizione | Disclaimer

   EN    FR    IT 

 










Sommario :    VFR   VFR Marginale   IFR   IFR Intensivo   IFR Molto Intensivo
Visibilità : 
Base nubi : 
>= 8 km
>= 3000ft
5 / 8 km
1000 / 3000 ft
1500m / 5 km
500 / 1000 ft
800 / 1500m
200 / 500 ft
< 800m
< 200 ft
Simboli :   Temporali  Nebbia  Neve Forte  Precipitazioni Forti  Vento > 20 kt
SIGMETs :   Varie  Temporali  Ghiacco  Turbolenza  Onda orograficha  Ceneri Vulcaniche






- Altitudine del aeroporto : 7 ft
- Codice IATA : VCE


LIPZ - Marco Polo Int. Venezia

ULTIMO METAR :
  • 141520Z 14010KT 9000 NSC 22/15 Q1019 NOSIG

METARs OBSOLETI :
  • 141450Z 15009KT 9000 NSC 22/16 Q1020 NOSIG
  • 141420Z 15010KT 9000 NSC 22/17 Q1020 NOSIG
  • 141350Z 15010KT 8000 NSC 23/17 Q1020 NOSIG
  • 141320Z 15010KT 8000 NSC 23/16 Q1021 NOSIG
  • 141250Z 15009KT 8000 NSC 23/17 Q1021 NOSIG
  • 141220Z 15009KT CAVOK 23/18 Q1022 NOSIG
  • 141150Z 15007KT CAVOK 24/17 Q1022 NOSIG
  • 141120Z 16007KT 9000 NSC 24/17 Q1022 NOSIG
  • 141050Z 15006KT 9000 NSC 24/16 Q1022 NOSIG

TAF TAF LIPZ
Valido dal 14 a 12 ore il 15 a 18 ore UTC


141100Z 1412/1518 16012KT CAVOK
BECMG 1418/1420 VRB05KT
BECMG 1509/1511 17012KT



MetMap, La meteo Aeronautica in un colpo d'occhio ! - Copyright ORBIFLY Dicembre 2007 - Disclaimer

ORBIFLY MET'MAP TEAM :

Programmazione e sviluppo : Alexandra Zaïnal
Concezione : Baudouin d'Aumeries
Supporto tecnico e logistico : Manuel Goepfert
Aiuto : Marc-Olivier Méhu
Aiuto per la traduzione : Arnaldo La Scala




FONTI E CREDITI :

   NOAA